sensor_id;sensor_type;location;lat;lon;timestamp;pressure;altitude;pressure_sealevel;temperature;humidity
73024;BME280;61199;47.526;8.538;2022-12-10T00:00:25;95137.31;;;4.79;74.24
73024;BME280;61199;47.526;8.538;2022-12-10T00:02:52;95141.13;;;4.75;74.21
73024;BME280;61199;47.526;8.538;2022-12-10T00:05:18;95142.06;;;4.74;74.45
73024;BME280;61199;47.526;8.538;2022-12-10T00:07:44;95141.47;;;4.61;74.25
73024;BME280;61199;47.526;8.538;2022-12-10T00:10:11;95144.75;;;4.63;74.80
73024;BME280;61199;47.526;8.538;2022-12-10T00:12:38;95149.50;;;4.58;74.50
73024;BME280;61199;47.526;8.538;2022-12-10T00:15:04;95150.59;;;4.56;74.60
73024;BME280;61199;47.526;8.538;2022-12-10T00:17:31;95144.56;;;4.55;74.69
73024;BME280;61199;47.526;8.538;2022-12-10T00:19:57;95134.91;;;4.57;74.77
73024;BME280;61199;47.526;8.538;2022-12-10T00:22:23;95125.63;;;4.64;74.83
73024;BME280;61199;47.526;8.538;2022-12-10T00:24:50;95120.22;;;4.67;74.67
73024;BME280;61199;47.526;8.538;2022-12-10T00:27:16;95118.44;;;4.68;74.59
73024;BME280;61199;47.526;8.538;2022-12-10T00:29:43;95119.00;;;4.71;74.40
73024;BME280;61199;47.526;8.538;2022-12-10T00:32:09;95105.22;;;4.71;74.29
73024;BME280;61199;47.526;8.538;2022-12-10T00:34:36;95104.78;;;4.66;74.61
73024;BME280;61199;47.526;8.538;2022-12-10T00:37:02;95097.44;;;4.71;74.07
73024;BME280;61199;47.526;8.538;2022-12-10T00:39:28;95102.06;;;4.67;74.43
73024;BME280;61199;47.526;8.538;2022-12-10T00:41:55;95104.66;;;4.67;74.71
73024;BME280;61199;47.526;8.538;2022-12-10T00:44:21;95109.69;;;4.59;74.74
73024;BME280;61199;47.526;8.538;2022-12-10T00:46:48;95109.56;;;4.70;74.68
73024;BME280;61199;47.526;8.538;2022-12-10T00:49:14;95112.69;;;4.64;74.37
73024;BME280;61199;47.526;8.538;2022-12-10T00:51:40;95110.09;;;4.64;74.30
73024;BME280;61199;47.526;8.538;2022-12-10T00:54:07;95096.44;;;4.62;74.73
73024;BME280;61199;47.526;8.538;2022-12-10T00:56:34;95084.16;;;4.64;74.55
73024;BME280;61199;47.526;8.538;2022-12-10T00:59:01;95106.28;;;4.68;74.16
73024;BME280;61199;47.526;8.538;2022-12-10T01:01:30;95127.81;;;4.59;74.49
73024;BME280;61199;47.526;8.538;2022-12-10T01:04:00;95122.88;;;4.56;74.76
73024;BME280;61199;47.526;8.538;2022-12-10T01:06:36;95121.13;;;4.57;74.45
73024;BME280;61199;47.526;8.538;2022-12-10T01:09:08;95117.31;;;4.61;74.93
73024;BME280;61199;47.526;8.538;2022-12-10T01:11:37;95123.72;;;4.57;74.47
73024;BME280;61199;47.526;8.538;2022-12-10T01:14:09;95136.56;;;4.58;74.78
73024;BME280;61199;47.526;8.538;2022-12-10T01:16:36;95129.16;;;4.54;74.83
73024;BME280;61199;47.526;8.538;2022-12-10T01:19:03;95119.47;;;4.56;74.49
73024;BME280;61199;47.526;8.538;2022-12-10T01:21:31;95124.53;;;4.57;74.88
73024;BME280;61199;47.526;8.538;2022-12-10T01:23:57;95137.91;;;4.53;74.79
73024;BME280;61199;47.526;8.538;2022-12-10T01:26:27;95136.50;;;4.49;74.58
73024;BME280;61199;47.526;8.538;2022-12-10T01:28:55;95129.97;;;4.54;74.52
73024;BME280;61199;47.526;8.538;2022-12-10T01:31:33;95125.75;;;4.53;74.30
73024;BME280;61199;47.526;8.538;2022-12-10T01:34:01;95129.41;;;4.51;74.87
73024;BME280;61199;47.526;8.538;2022-12-10T01:36:33;95135.31;;;4.53;75.03
73024;BME280;61199;47.526;8.538;2022-12-10T01:39:01;95129.97;;;4.54;74.45
73024;BME280;61199;47.526;8.538;2022-12-10T01:41:35;95130.59;;;4.67;74.61
73024;BME280;61199;47.526;8.538;2022-12-10T01:46:39;95129.72;;;4.57;74.48
73024;BME280;61199;47.526;8.538;2022-12-10T01:49:08;95120.03;;;4.59;74.54
73024;BME280;61199;47.526;8.538;2022-12-10T01:51:37;95120.28;;;4.56;74.30
73024;BME280;61199;47.526;8.538;2022-12-10T01:54:09;95125.22;;;4.59;74.60
73024;BME280;61199;47.526;8.538;2022-12-10T01:56:41;95133.22;;;4.47;74.49
73024;BME280;61199;47.526;8.538;2022-12-10T01:59:09;95137.44;;;4.38;74.59
73024;BME280;61199;47.526;8.538;2022-12-10T02:01:45;95138.09;;;4.40;74.71
73024;BME280;61199;47.526;8.538;2022-12-10T02:04:41;95144.88;;;4.32;74.84
73024;BME280;61199;47.526;8.538;2022-12-10T02:15:19;95154.66;;;4.28;75.12
73024;BME280;61199;47.526;8.538;2022-12-10T02:17:54;95151.56;;;4.34;75.13
73024;BME280;61199;47.526;8.538;2022-12-10T02:20:25;95157.22;;;4.39;75.01
73024;BME280;61199;47.526;8.538;2022-12-10T02:22:54;95153.78;;;4.39;75.48
73024;BME280;61199;47.526;8.538;2022-12-10T02:25:27;95145.88;;;4.40;74.92
73024;BME280;61199;47.526;8.538;2022-12-10T02:30:32;95146.38;;;4.34;74.89
73024;BME280;61199;47.526;8.538;2022-12-10T02:33:00;95142.22;;;4.43;75.06
73024;BME280;61199;47.526;8.538;2022-12-10T02:35:31;95144.28;;;4.49;74.87
73024;BME280;61199;47.526;8.538;2022-12-10T02:38:10;95150.13;;;4.41;75.04
73024;BME280;61199;47.526;8.538;2022-12-10T02:40:48;95146.13;;;4.37;74.81
73024;BME280;61199;47.526;8.538;2022-12-10T02:43:15;95140.03;;;4.38;74.84
73024;BME280;61199;47.526;8.538;2022-12-10T02:45:44;95151.31;;;4.37;75.07
73024;BME280;61199;47.526;8.538;2022-12-10T02:48:11;95140.41;;;4.34;74.86
73024;BME280;61199;47.526;8.538;2022-12-10T02:50:40;95136.72;;;4.36;75.44
73024;BME280;61199;47.526;8.538;2022-12-10T02:53:06;95136.84;;;4.35;75.31
73024;BME280;61199;47.526;8.538;2022-12-10T02:55:45;95136.03;;;4.34;75.19
73024;BME280;61199;47.526;8.538;2022-12-10T02:59:04;95127.56;;;4.32;75.48
73024;BME280;61199;47.526;8.538;2022-12-10T03:01:42;95128.75;;;4.28;75.47
73024;BME280;61199;47.526;8.538;2022-12-10T03:04:16;95138.63;;;4.14;75.57
73024;BME280;61199;47.526;8.538;2022-12-10T03:06:51;95141.03;;;4.26;75.79
73024;BME280;61199;47.526;8.538;2022-12-10T03:09:23;95136.38;;;4.20;76.01
73024;BME280;61199;47.526;8.538;2022-12-10T03:11:59;95131.03;;;4.22;75.95
73024;BME280;61199;47.526;8.538;2022-12-10T03:14:29;95142.34;;;4.21;75.92
73024;BME280;61199;47.526;8.538;2022-12-10T03:16:59;95139.69;;;4.32;75.68
73024;BME280;61199;47.526;8.538;2022-12-10T03:19:37;95138.91;;;4.41;75.46
73024;BME280;61199;47.526;8.538;2022-12-10T03:22:06;95135.13;;;4.45;75.33
73024;BME280;61199;47.526;8.538;2022-12-10T03:24:35;95126.28;;;4.47;74.75
73024;BME280;61199;47.526;8.538;2022-12-10T03:27:03;95119.53;;;4.35;75.12
73024;BME280;61199;47.526;8.538;2022-12-10T03:29:41;95107.63;;;4.33;75.47
73024;BME280;61199;47.526;8.538;2022-12-10T03:32:09;95111.56;;;4.27;75.27
73024;BME280;61199;47.526;8.538;2022-12-10T03:34:37;95114.63;;;4.12;75.66
73024;BME280;61199;47.526;8.538;2022-12-10T03:37:04;95120.84;;;4.00;76.41
73024;BME280;61199;47.526;8.538;2022-12-10T03:39:32;95130.38;;;3.99;76.86
73024;BME280;61199;47.526;8.538;2022-12-10T03:41:59;95128.06;;;4.06;76.17
73024;BME280;61199;47.526;8.538;2022-12-10T03:44:33;95128.34;;;4.03;76.56
73024;BME280;61199;47.526;8.538;2022-12-10T03:47:01;95127.28;;;4.05;76.59
73024;BME280;61199;47.526;8.538;2022-12-10T03:49:28;95131.06;;;4.01;76.72
73024;BME280;61199;47.526;8.538;2022-12-10T03:51:54;95125.88;;;4.01;76.96
73024;BME280;61199;47.526;8.538;2022-12-10T03:54:21;95129.41;;;4.00;76.88
73024;BME280;61199;47.526;8.538;2022-12-10T03:56:48;95133.03;;;4.09;76.57
73024;BME280;61199;47.526;8.538;2022-12-10T03:59:14;95133.72;;;4.11;76.47
73024;BME280;61199;47.526;8.538;2022-12-10T04:01:41;95133.72;;;4.11;76.56
73024;BME280;61199;47.526;8.538;2022-12-10T04:04:08;95139.66;;;4.02;76.92
73024;BME280;61199;47.526;8.538;2022-12-10T04:06:37;95132.72;;;4.02;76.68
73024;BME280;61199;47.526;8.538;2022-12-10T04:09:05;95132.34;;;4.07;76.76
73024;BME280;61199;47.526;8.538;2022-12-10T04:11:31;95138.00;;;4.21;75.80
73024;BME280;61199;47.526;8.538;2022-12-10T04:13:57;95137.56;;;4.16;76.06
73024;BME280;61199;47.526;8.538;2022-12-10T04:16:43;95141.09;;;4.15;75.97
73024;BME280;61199;47.526;8.538;2022-12-10T04:19:11;95138.97;;;4.20;75.94
73024;BME280;61199;47.526;8.538;2022-12-10T04:21:39;95140.72;;;4.20;75.95
73024;BME280;61199;47.526;8.538;2022-12-10T04:24:27;95125.47;;;4.26;76.20
73024;BME280;61199;47.526;8.538;2022-12-10T04:29:44;95125.63;;;4.25;75.68
73024;BME280;61199;47.526;8.538;2022-12-10T04:32:10;95135.16;;;4.24;75.90
73024;BME280;61199;47.526;8.538;2022-12-10T04:34:37;95133.72;;;4.11;75.91
73024;BME280;61199;47.526;8.538;2022-12-10T04:37:03;95137.94;;;4.12;76.57
73024;BME280;61199;47.526;8.538;2022-12-10T04:39:30;95145.34;;;4.16;75.93
73024;BME280;61199;47.526;8.538;2022-12-10T04:41:57;95137.69;;;4.15;76.03
73024;BME280;61199;47.526;8.538;2022-12-10T04:44:24;95137.13;;;4.11;76.19
73024;BME280;61199;47.526;8.538;2022-12-10T04:46:51;95142.56;;;4.08;76.01
73024;BME280;61199;47.526;8.538;2022-12-10T04:49:17;95135.47;;;4.10;75.81
73024;BME280;61199;47.526;8.538;2022-12-10T04:51:44;95128.66;;;4.09;76.42
73024;BME280;61199;47.526;8.538;2022-12-10T04:54:11;95123.66;;;4.17;76.17
73024;BME280;61199;47.526;8.538;2022-12-10T04:56:38;95132.25;;;4.18;75.75
73024;BME280;61199;47.526;8.538;2022-12-10T04:59:04;95125.94;;;4.11;75.76
73024;BME280;61199;47.526;8.538;2022-12-10T05:01:31;95121.06;;;4.17;75.97
73024;BME280;61199;47.526;8.538;2022-12-10T05:04:00;95116.84;;;4.16;75.64
73024;BME280;61199;47.526;8.538;2022-12-10T05:06:27;95120.56;;;4.23;75.76
73024;BME280;61199;47.526;8.538;2022-12-10T05:08:54;95127.38;;;4.24;75.49
73024;BME280;61199;47.526;8.538;2022-12-10T05:11:22;95142.59;;;4.38;75.25
73024;BME280;61199;47.526;8.538;2022-12-10T05:13:49;95144.88;;;4.32;75.21
73024;BME280;61199;47.526;8.538;2022-12-10T05:16:20;95140.94;;;4.37;75.41
73024;BME280;61199;47.526;8.538;2022-12-10T05:18:47;95143.13;;;4.32;75.03
73024;BME280;61199;47.526;8.538;2022-12-10T05:21:16;95142.22;;;4.43;74.92
73024;BME280;61199;47.526;8.538;2022-12-10T05:23:45;95143.28;;;4.40;74.90
73024;BME280;61199;47.526;8.538;2022-12-10T05:26:18;95146.06;;;4.48;74.76
73024;BME280;61199;47.526;8.538;2022-12-10T05:28:53;95148.47;;;4.40;74.57
73024;BME280;61199;47.526;8.538;2022-12-10T05:31:24;95149.88;;;4.24;74.87
73024;BME280;61199;47.526;8.538;2022-12-10T05:33:52;95152.13;;;4.08;75.37
73024;BME280;61199;47.526;8.538;2022-12-10T05:36:20;95140.91;;;4.07;75.50
73024;BME280;61199;47.526;8.538;2022-12-10T05:38:47;95141.75;;;4.08;75.87
73024;BME280;61199;47.526;8.538;2022-12-10T05:41:16;95140.66;;;4.10;75.55
73024;BME280;61199;47.526;8.538;2022-12-10T05:43:43;95147.31;;;4.03;75.60
73024;BME280;61199;47.526;8.538;2022-12-10T05:46:13;95154.81;;;4.06;76.17
73024;BME280;61199;47.526;8.538;2022-12-10T05:48:40;95144.19;;;4.09;76.15
73024;BME280;61199;47.526;8.538;2022-12-10T05:51:09;95151.28;;;4.07;75.71
73024;BME280;61199;47.526;8.538;2022-12-10T05:53:36;95154.94;;;4.05;75.81
73024;BME280;61199;47.526;8.538;2022-12-10T05:56:08;95160.44;;;4.11;75.50
73024;BME280;61199;47.526;8.538;2022-12-10T05:58:36;95163.28;;;4.08;75.48
73024;BME280;61199;47.526;8.538;2022-12-10T06:01:07;95166.31;;;4.13;75.40
73024;BME280;61199;47.526;8.538;2022-12-10T06:03:34;95169.88;;;4.12;75.41
73024;BME280;61199;47.526;8.538;2022-12-10T06:06:00;95171.69;;;4.01;75.61
73024;BME280;61199;47.526;8.538;2022-12-10T06:08:26;95173.44;;;4.00;75.96
73024;BME280;61199;47.526;8.538;2022-12-10T06:10:53;95172.72;;;3.89;76.33
73024;BME280;61199;47.526;8.538;2022-12-10T06:13:20;95182.16;;;3.79;77.00
73024;BME280;61199;47.526;8.538;2022-12-10T06:15:46;95177.00;;;3.79;77.22
73024;BME280;61199;47.526;8.538;2022-12-10T06:18:12;95170.22;;;3.87;77.03
73024;BME280;61199;47.526;8.538;2022-12-10T06:20:39;95174.03;;;3.83;76.62
73024;BME280;61199;47.526;8.538;2022-12-10T06:23:12;95174.56;;;3.87;76.79
73024;BME280;61199;47.526;8.538;2022-12-10T06:25:39;95180.50;;;3.78;76.79
73024;BME280;61199;47.526;8.538;2022-12-10T06:28:06;95185.28;;;3.62;77.28
73024;BME280;61199;47.526;8.538;2022-12-10T06:30:33;95188.22;;;3.68;77.15
73024;BME280;61199;47.526;8.538;2022-12-10T06:33:00;95182.28;;;3.77;77.14
73024;BME280;61199;47.526;8.538;2022-12-10T06:35:26;95188.84;;;3.81;77.19
73024;BME280;61199;47.526;8.538;2022-12-10T06:37:53;95181.91;;;3.82;77.29
73024;BME280;61199;47.526;8.538;2022-12-10T06:40:19;95181.78;;;3.83;77.29
73024;BME280;61199;47.526;8.538;2022-12-10T06:42:45;95181.34;;;3.78;77.35
73024;BME280;61199;47.526;8.538;2022-12-10T06:45:12;95187.09;;;3.82;77.54
73024;BME280;61199;47.526;8.538;2022-12-10T06:47:38;95184.44;;;3.93;76.96
73024;BME280;61199;47.526;8.538;2022-12-10T06:50:08;95185.06;;;3.85;76.89
73024;BME280;61199;47.526;8.538;2022-12-10T06:52:35;95192.69;;;3.66;78.18
73024;BME280;61199;47.526;8.538;2022-12-10T06:55:02;95191.53;;;3.59;78.67
73024;BME280;61199;47.526;8.538;2022-12-10T06:57:28;95198.69;;;3.67;78.03
73024;BME280;61199;47.526;8.538;2022-12-10T06:59:55;95195.34;;;3.76;77.58
73024;BME280;61199;47.526;8.538;2022-12-10T07:02:21;95202.69;;;3.91;77.52
73024;BME280;61199;47.526;8.538;2022-12-10T07:04:48;95207.88;;;3.91;76.65
73024;BME280;61199;47.526;8.538;2022-12-10T07:07:14;95201.88;;;3.91;76.49
73024;BME280;61199;47.526;8.538;2022-12-10T07:09:40;95210.91;;;3.96;76.94
73024;BME280;61199;47.526;8.538;2022-12-10T07:12:07;95215.72;;;4.01;77.01
73024;BME280;61199;47.526;8.538;2022-12-10T07:14:33;95211.34;;;4.01;76.38
73024;BME280;61199;47.526;8.538;2022-12-10T07:16:59;95209.97;;;3.97;76.49
73024;BME280;61199;47.526;8.538;2022-12-10T07:19:28;95212.06;;;4.03;75.97
73024;BME280;61199;47.526;8.538;2022-12-10T07:21:54;95215.34;;;4.05;76.09
73024;BME280;61199;47.526;8.538;2022-12-10T07:24:21;95224.50;;;4.09;75.95
73024;BME280;61199;47.526;8.538;2022-12-10T07:26:47;95217.31;;;4.13;76.12
73024;BME280;61199;47.526;8.538;2022-12-10T07:29:16;95220.28;;;4.08;76.23
73024;BME280;61199;47.526;8.538;2022-12-10T07:31:43;95223.81;;;4.07;75.90
73024;BME280;61199;47.526;8.538;2022-12-10T07:34:11;95232.16;;;4.11;76.18
73024;BME280;61199;47.526;8.538;2022-12-10T07:36:38;95236.06;;;4.05;76.46
73024;BME280;61199;47.526;8.538;2022-12-10T07:39:07;95232.53;;;4.06;76.44
73024;BME280;61199;47.526;8.538;2022-12-10T07:41:34;95242.56;;;4.00;76.54
73024;BME280;61199;47.526;8.538;2022-12-10T07:44:03;95239.34;;;4.07;76.05
73024;BME280;61199;47.526;8.538;2022-12-10T07:46:32;95229.94;;;4.06;76.46
73024;BME280;61199;47.526;8.538;2022-12-10T07:49:01;95231.94;;;4.03;76.30
73024;BME280;61199;47.526;8.538;2022-12-10T07:51:29;95237.97;;;4.03;75.92
73024;BME280;61199;47.526;8.538;2022-12-10T07:53:56;95240.69;;;4.02;76.55
73024;BME280;61199;47.526;8.538;2022-12-10T07:56:23;95245.38;;;3.76;76.78
73024;BME280;61199;47.526;8.538;2022-12-10T07:58:51;95250.25;;;3.90;76.39
73024;BME280;61199;47.526;8.538;2022-12-10T08:01:23;95248.25;;;3.94;76.94
73024;BME280;61199;47.526;8.538;2022-12-10T08:03:50;95252.19;;;3.77;76.84
73024;BME280;61199;47.526;8.538;2022-12-10T08:06:19;95252.09;;;3.79;77.09
73024;BME280;61199;47.526;8.538;2022-12-10T08:08:46;95247.97;;;3.76;76.77
73024;BME280;61199;47.526;8.538;2022-12-10T08:11:14;95258.84;;;3.37;78.19
73024;BME280;61199;47.526;8.538;2022-12-10T08:13:41;95259.81;;;3.47;77.46
73024;BME280;61199;47.526;8.538;2022-12-10T08:16:11;95271.59;;;3.40;77.72
73024;BME280;61199;47.526;8.538;2022-12-10T08:18:39;95271.94;;;3.36;77.93
73024;BME280;61199;47.526;8.538;2022-12-10T08:21:10;95280.41;;;3.38;77.92
73024;BME280;61199;47.526;8.538;2022-12-10T08:23:37;95291.19;;;3.54;80.74
73024;BME280;61199;47.526;8.538;2022-12-10T08:26:05;95280.19;;;3.72;80.13
73024;BME280;61199;47.526;8.538;2022-12-10T08:28:32;95291.53;;;3.60;78.52
73024;BME280;61199;47.526;8.538;2022-12-10T08:30:59;95286.25;;;3.51;78.21
73024;BME280;61199;47.526;8.538;2022-12-10T08:33:25;95295.69;;;3.41;78.04
73024;BME280;61199;47.526;8.538;2022-12-10T08:35:51;95295.09;;;3.37;78.14
73024;BME280;61199;47.526;8.538;2022-12-10T08:38:18;95297.91;;;3.56;77.99
73024;BME280;61199;47.526;8.538;2022-12-10T08:40:44;95291.28;;;3.63;77.79
73024;BME280;61199;47.526;8.538;2022-12-10T08:43:10;95298.81;;;3.55;78.73
73024;BME280;61199;47.526;8.538;2022-12-10T08:45:37;95303.19;;;3.55;78.16
73024;BME280;61199;47.526;8.538;2022-12-10T08:48:03;95320.03;;;3.49;78.71
73024;BME280;61199;47.526;8.538;2022-12-10T08:50:30;95324.00;;;3.53;77.64
73024;BME280;61199;47.526;8.538;2022-12-10T08:52:56;95320.88;;;3.28;78.74
73024;BME280;61199;47.526;8.538;2022-12-10T08:55:23;95322.38;;;3.41;78.20
73024;BME280;61199;47.526;8.538;2022-12-10T08:57:50;95323.78;;;3.45;78.33
73024;BME280;61199;47.526;8.538;2022-12-10T09:00:16;95324.28;;;3.39;78.51
73024;BME280;61199;47.526;8.538;2022-12-10T09:02:45;95327.22;;;3.35;78.65
73024;BME280;61199;47.526;8.538;2022-12-10T09:05:11;95330.03;;;3.43;78.25
73024;BME280;61199;47.526;8.538;2022-12-10T09:07:39;95333.19;;;3.46;78.09
73024;BME280;61199;47.526;8.538;2022-12-10T09:10:05;95344.28;;;3.48;78.47
73024;BME280;61199;47.526;8.538;2022-12-10T09:12:33;95327.31;;;3.44;78.12
73024;BME280;61199;47.526;8.538;2022-12-10T09:15:00;95334.88;;;3.47;78.17
73024;BME280;61199;47.526;8.538;2022-12-10T09:17:26;95335.31;;;3.52;78.07
73024;BME280;61199;47.526;8.538;2022-12-10T09:19:52;95342.03;;;3.55;77.93
73024;BME280;61199;47.526;8.538;2022-12-10T09:22:19;95345.78;;;3.62;78.15
73024;BME280;61199;47.526;8.538;2022-12-10T09:24:45;95343.41;;;3.59;77.71
73024;BME280;61199;47.526;8.538;2022-12-10T09:27:11;95348.03;;;3.44;78.21
73024;BME280;61199;47.526;8.538;2022-12-10T09:29:38;95355.56;;;3.47;78.22
73024;BME280;61199;47.526;8.538;2022-12-10T09:32:04;95353.31;;;3.32;78.29
73024;BME280;61199;47.526;8.538;2022-12-10T09:34:31;95351.44;;;3.45;79.01
73024;BME280;61199;47.526;8.538;2022-12-10T09:36:57;95360.75;;;3.47;78.85
73024;BME280;61199;47.526;8.538;2022-12-10T09:39:23;95360.38;;;3.63;77.69
73024;BME280;61199;47.526;8.538;2022-12-10T09:47:00;95362.09;;;3.73;77.36
73024;BME280;61199;47.526;8.538;2022-12-10T09:52:26;95363.75;;;3.85;77.15
73024;BME280;61199;47.526;8.538;2022-12-10T09:55:02;95353.63;;;3.82;76.54
73024;BME280;61199;47.526;8.538;2022-12-10T09:57:35;95360.69;;;3.80;77.21
73024;BME280;61199;47.526;8.538;2022-12-10T10:00:19;95353.50;;;3.84;77.37
73024;BME280;61199;47.526;8.538;2022-12-10T10:02:46;95361.38;;;3.93;76.90
73024;BME280;61199;47.526;8.538;2022-12-10T10:05:25;95353.72;;;3.92;76.07
73024;BME280;61199;47.526;8.538;2022-12-10T10:07:59;95359.84;;;3.91;76.58
73024;BME280;61199;47.526;8.538;2022-12-10T10:10:30;95369.16;;;3.93;76.25
73024;BME280;61199;47.526;8.538;2022-12-10T10:13:26;95360.19;;;3.97;76.33
73024;BME280;61199;47.526;8.538;2022-12-10T10:15:47;95360.88;;;3.99;76.57
73024;BME280;61199;47.526;8.538;2022-12-10T10:18:23;95359.00;;;4.01;76.57
73024;BME280;61199;47.526;8.538;2022-12-10T10:20:53;95363.06;;;4.15;75.73
73024;BME280;61199;47.526;8.538;2022-12-10T10:23:20;95364.59;;;4.17;75.56
73024;BME280;61199;47.526;8.538;2022-12-10T10:25:46;95366.75;;;4.12;75.85
73024;BME280;61199;47.526;8.538;2022-12-10T10:28:18;95369.94;;;4.05;76.19
73024;BME280;61199;47.526;8.538;2022-12-10T10:30:45;95372.66;;;4.03;76.10
73024;BME280;61199;47.526;8.538;2022-12-10T10:33:13;95371.72;;;4.04;76.01
73024;BME280;61199;47.526;8.538;2022-12-10T10:35:46;95366.75;;;4.12;75.54
73024;BME280;61199;47.526;8.538;2022-12-10T10:38:18;95371.94;;;4.12;76.01
73024;BME280;61199;47.526;8.538;2022-12-10T10:40:52;95374.84;;;4.19;75.62
73024;BME280;61199;47.526;8.538;2022-12-10T10:43:27;95376.13;;;4.24;75.78
73024;BME280;61199;47.526;8.538;2022-12-10T10:45:59;95379.19;;;4.18;75.80
73024;BME280;61199;47.526;8.538;2022-12-10T10:48:29;95386.41;;;4.15;75.45
73024;BME280;61199;47.526;8.538;2022-12-10T10:53:52;95377.34;;;4.20;75.11
73024;BME280;61199;47.526;8.538;2022-12-10T10:56:25;95370.13;;;4.24;75.59
73024;BME280;61199;47.526;8.538;2022-12-10T10:59:01;95374.00;;;4.29;74.84
73024;BME280;61199;47.526;8.538;2022-12-10T11:01:45;95367.16;;;4.28;75.43
73024;BME280;61199;47.526;8.538;2022-12-10T11:04:14;95389.78;;;4.26;74.82
73024;BME280;61199;47.526;8.538;2022-12-10T11:06:43;95388.72;;;4.29;75.25
73024;BME280;61199;47.526;8.538;2022-12-10T11:09:21;95388.63;;;4.30;74.84
73024;BME280;61199;47.526;8.538;2022-12-10T11:11:52;95389.66;;;4.28;75.14
73024;BME280;61199;47.526;8.538;2022-12-10T11:14:29;95386.50;;;4.24;75.50
73024;BME280;61199;47.526;8.538;2022-12-10T11:19:41;95386.88;;;4.20;75.26
73024;BME280;61199;47.526;8.538;2022-12-10T11:22:17;95387.66;;;4.31;75.30
73024;BME280;61199;47.526;8.538;2022-12-10T11:24:47;95384.59;;;4.26;75.09
73024;BME280;61199;47.526;8.538;2022-12-10T11:27:44;95373.75;;;4.32;75.00
73024;BME280;61199;47.526;8.538;2022-12-10T11:30:19;95378.84;;;4.23;75.22
73024;BME280;61199;47.526;8.538;2022-12-10T11:35:38;95390.41;;;4.19;74.97
73024;BME280;61199;47.526;8.538;2022-12-10T11:38:27;95391.34;;;4.18;75.09
73024;BME280;61199;47.526;8.538;2022-12-10T11:44:39;95396.41;;;4.19;75.13
73024;BME280;61199;47.526;8.538;2022-12-10T11:50:48;95398.53;;;4.14;75.23
73024;BME280;61199;47.526;8.538;2022-12-10T11:55:50;95401.56;;;4.30;74.49
73024;BME280;61199;47.526;8.538;2022-12-10T12:01:31;95409.19;;;4.32;74.15
73024;BME280;61199;47.526;8.538;2022-12-10T12:04:25;95422.06;;;4.33;74.67
73024;BME280;61199;47.526;8.538;2022-12-10T12:09:57;95421.47;;;4.30;74.57
73024;BME280;61199;47.526;8.538;2022-12-10T12:15:32;95434.66;;;4.38;74.54
73024;BME280;61199;47.526;8.538;2022-12-10T12:18:21;95441.94;;;4.33;74.25
73024;BME280;61199;47.526;8.538;2022-12-10T12:20:56;95444.91;;;4.39;74.06
73024;BME280;61199;47.526;8.538;2022-12-10T12:23:28;95443.69;;;4.43;74.26
73024;BME280;61199;47.526;8.538;2022-12-10T12:26:09;95445.13;;;4.47;74.04
73024;BME280;61199;47.526;8.538;2022-12-10T12:28:41;95452.41;;;4.42;74.60
73024;BME280;61199;47.526;8.538;2022-12-10T12:31:40;95455.50;;;4.47;74.79
73024;BME280;61199;47.526;8.538;2022-12-10T12:34:17;95456.78;;;4.42;74.56
73024;BME280;61199;47.526;8.538;2022-12-10T12:36:46;95461.84;;;4.43;74.61
73024;BME280;61199;47.526;8.538;2022-12-10T12:42:06;95461.84;;;4.43;73.95
73024;BME280;61199;47.526;8.538;2022-12-10T12:47:42;95462.09;;;4.40;74.47
73024;BME280;61199;47.526;8.538;2022-12-10T12:50:28;95472.22;;;4.43;74.36
73024;BME280;61199;47.526;8.538;2022-12-10T12:52:57;95470.69;;;4.41;74.33
73024;BME280;61199;47.526;8.538;2022-12-10T12:55:39;95473.53;;;4.38;74.51
73024;BME280;61199;47.526;8.538;2022-12-10T13:00:50;95477.41;;;4.32;74.62
73024;BME280;61199;47.526;8.538;2022-12-10T13:03:39;95479.69;;;4.26;74.78
73024;BME280;61199;47.526;8.538;2022-12-10T13:11:41;95488.16;;;4.06;74.88
73024;BME280;61199;47.526;8.538;2022-12-10T13:14:32;95491.13;;;4.12;74.39
73024;BME280;61199;47.526;8.538;2022-12-10T13:17:07;95500.28;;;4.05;74.19
73024;BME280;61199;47.526;8.538;2022-12-10T13:19:46;95497.34;;;3.99;73.58
73024;BME280;61199;47.526;8.538;2022-12-10T13:25:16;95510.06;;;4.13;73.13
73024;BME280;61199;47.526;8.538;2022-12-10T13:27:58;95506.19;;;4.07;72.89
73024;BME280;61199;47.526;8.538;2022-12-10T13:36:38;95515.59;;;4.08;72.61
73024;BME280;61199;47.526;8.538;2022-12-10T13:39:36;95517.47;;;4.06;73.26
73024;BME280;61199;47.526;8.538;2022-12-10T13:48:19;95539.16;;;4.05;72.59
73024;BME280;61199;47.526;8.538;2022-12-10T13:56:51;95550.22;;;4.07;73.18
73024;BME280;61199;47.526;8.538;2022-12-10T14:02:51;95545.28;;;4.04;73.64
73024;BME280;61199;47.526;8.538;2022-12-10T14:08:13;95548.81;;;4.03;74.03
73024;BME280;61199;47.526;8.538;2022-12-10T14:10:42;95555.84;;;4.01;74.38
73024;BME280;61199;47.526;8.538;2022-12-10T14:13:11;95557.53;;;4.02;74.61
73024;BME280;61199;47.526;8.538;2022-12-10T14:15:39;95566.47;;;4.09;74.24
73024;BME280;61199;47.526;8.538;2022-12-10T14:18:12;95564.72;;;4.10;74.51
73024;BME280;61199;47.526;8.538;2022-12-10T14:20:46;95570.69;;;4.10;74.28
73024;BME280;61199;47.526;8.538;2022-12-10T14:23:31;95573.53;;;4.18;73.92
73024;BME280;61199;47.526;8.538;2022-12-10T14:26:14;95579.56;;;4.19;74.32
73024;BME280;61199;47.526;8.538;2022-12-10T14:28:47;95584.38;;;4.12;74.18
73024;BME280;61199;47.526;8.538;2022-12-10T14:31:17;95586.97;;;4.23;74.34
73024;BME280;61199;47.526;8.538;2022-12-10T14:33:48;95593.69;;;4.26;74.43
73024;BME280;61199;47.526;8.538;2022-12-10T14:36:30;95598.88;;;4.26;73.97
73024;BME280;61199;47.526;8.538;2022-12-10T14:38:59;95597.34;;;4.12;73.98
73024;BME280;61199;47.526;8.538;2022-12-10T14:41:28;95600.13;;;4.09;74.33
73024;BME280;61199;47.526;8.538;2022-12-10T14:43:57;95602.38;;;3.92;74.91
73024;BME280;61199;47.526;8.538;2022-12-10T14:46:28;95606.47;;;3.83;75.39
73024;BME280;61199;47.526;8.538;2022-12-10T14:48:55;95599.19;;;3.99;75.01
73024;BME280;61199;47.526;8.538;2022-12-10T14:51:24;95599.94;;;4.12;75.06
73024;BME280;61199;47.526;8.538;2022-12-10T14:53:53;95606.88;;;4.23;73.99
73024;BME280;61199;47.526;8.538;2022-12-10T14:56:32;95605.94;;;4.24;73.88
73024;BME280;61199;47.526;8.538;2022-12-10T15:04:00;95616.88;;;4.27;73.55